KMCN

Middle Georgia Regional Airport

Macon, Georgia, USA
METAR KMCN 160153Z AUTO 27003KT 10SM CLR 09/07 A3004 RMK AO2 SLP172 T00940072
Observed Flight Rules
Dec-16 @ 01:53 UTC (27 minutes ago) Visual Flight Rules
Wind Visibility Clouds
270° at 3 knots 10 miles
  • Clear skies
Temperatures Readings
Current 9°C / 48°F
Dewpoint 7°C / 45°F
Humidity 87%
Altimeter 30.04" Hg
Pressure 1017.2 hPa
Elevation 109
METAR KMCN 160153Z AUTO 27003KT 10SM CLR 09/07 A3004 RMK AO2 SLP172 T00940072
Observed Flight Rules
Dec-16 @ 01:53 UTC
(27 minutes ago)
VFR
Wind Visibility
270° at 3 knots 10 miles
Clouds
  • Clear skies
Temperature Dewpoint
9°C / 48°F 7°C / 45°F
Humidity Altimeter Pressure
87% 30.04" Hg 1017.2 hPa